Time;durP1;ratioP1;P1;durP2;ratioP2;P2;SDS_P1;SDS_P2;PMS_P1;PMS_P2;Temp;Humidity;BMP_temperature;BMP_pressure;BME280_temperature;BME280_humidity;BME280_pressure;Samples;Min_cycle;Max_cycle;Signal;HPM_P1;HPM_P2
2021/09/29 00:00:29;;;;;;;13.93;7.85;;;;;;;11.83;82.44;101480.09;2058388;28;20049;-66
2021/09/29 00:01:29;;;;;;;10.55;7.40;;;;;;;11.85;82.23;101486.09;2058358;28;20053;-65
2021/09/29 00:02:29;;;;;;;9.60;7.07;;;;;;;11.84;82.79;101489.63;2058455;28;20530;-66
2021/09/29 00:03:29;;;;;;;11.93;7.53;;;;;;;11.85;82.39;101482.66;2058384;28;20046;-66
2021/09/29 00:04:30;;;;;;;8.20;6.97;;;;;;;11.85;82.61;101480.84;2057465;28;20109;-67
2021/09/29 00:05:30;;;;;;;14.53;7.83;;;;;;;11.85;82.29;101480.84;2057787;28;20027;-66
2021/09/29 00:06:31;;;;;;;13.13;7.45;;;;;;;11.85;82.25;101482.66;2057846;28;20031;-66
2021/09/29 00:07:31;;;;;;;10.07;6.95;;;;;;;11.82;82.83;101477.53;2058039;28;20019;-68
2021/09/29 00:08:32;;;;;;;12.23;5.63;;;;;;;11.77;82.45;101464.59;2058075;28;20019;-67
2021/09/29 00:09:32;;;;;;;10.60;7.20;;;;;;;11.78;82.67;101468.94;2058134;28;20396;-69
2021/09/29 00:10:32;;;;;;;12.50;7.40;;;;;;;11.76;82.77;101475.13;2058182;28;20546;-68
2021/09/29 00:11:32;;;;;;;9.37;7.67;;;;;;;11.76;83.04;101475.13;2058207;28;20070;-67
2021/09/29 00:12:33;;;;;;;11.27;6.53;;;;;;;11.75;82.87;101469.06;2058107;28;20069;-68
2021/09/29 00:13:34;;;;;;;10.13;7.55;;;;;;;11.75;82.99;101471.69;2058210;28;20026;-67
2021/09/29 00:14:34;;;;;;;10.85;7.10;;;;;;;11.73;83.49;101476.09;2058220;28;20073;-68
2021/09/29 00:15:35;;;;;;;10.93;6.00;;;;;;;11.74;82.71;101466.50;2058187;28;20373;-68
2021/09/29 00:16:36;;;;;;;9.00;7.05;;;;;;;11.76;82.81;101469.88;2058072;28;20061;-68
2021/09/29 00:17:43;;;;;;;13.47;7.03;;;;;;;11.75;82.76;101479.53;2057493;28;20031;-67
2021/09/29 00:18:44;;;;;;;9.35;7.63;;;;;;;11.75;82.82;101469.06;2057663;28;20030;-68
2021/09/29 00:19:44;;;;;;;15.03;7.23;;;;;;;11.74;83.04;101477.81;2057628;28;20038;-68
2021/09/29 00:20:44;;;;;;;10.37;6.47;;;;;;;11.71;82.71;101477.94;2057672;28;20026;-66
2021/09/29 00:21:44;;;;;;;11.63;6.80;;;;;;;11.68;83.07;101471.06;2058287;28;20070;-68
2021/09/29 00:22:45;;;;;;;14.47;7.63;;;;;;;11.66;83.45;101469.38;2057954;28;20480;-66
2021/09/29 00:23:47;;;;;;;9.27;5.97;;;;;;;11.66;83.59;101464.16;2057166;28;20073;-67
2021/09/29 00:24:47;;;;;;;14.90;8.00;;;;;;;11.67;83.63;101468.50;2057547;28;20401;-68
2021/09/29 00:25:48;;;;;;;13.37;7.60;;;;;;;11.65;83.25;101467.69;2057956;28;20026;-67
2021/09/29 00:26:48;;;;;;;11.02;7.30;;;;;;;11.61;84.09;101466.97;2058083;28;20101;-67
2021/09/29 00:27:49;;;;;;;10.73;7.07;;;;;;;11.62;83.27;101458.19;2057383;28;20027;-67
2021/09/29 00:28:49;;;;;;;12.23;7.20;;;;;;;11.61;83.58;101453.03;2057367;28;20066;-67
2021/09/29 00:29:51;;;;;;;8.53;6.53;;;;;;;11.61;83.28;101451.28;2057987;28;20054;-68
2021/09/29 00:31:01;;;;;;;11.85;5.88;;;;;;;11.59;84.23;101459.16;2057836;28;20388;-66
2021/09/29 00:32:05;;;;;;;13.85;4.82;;;;;;;11.58;83.54;101447.03;2058046;28;20026;-67
2021/09/29 00:33:05;;;;;;;11.75;5.13;;;;;;;11.61;83.56;101448.66;2058048;28;20029;-65
2021/09/29 00:34:21;;;;;;;13.13;5.03;;;;;;;11.62;83.31;101452.09;2057216;28;20027;-67
2021/09/29 00:35:21;;;;;;;10.02;5.60;;;;;;;11.57;83.54;101445.28;2057344;28;20297;-66
2021/09/29 00:36:21;;;;;;;8.30;5.20;;;;;;;11.55;83.20;101441.91;2057229;28;20022;-66
2021/09/29 00:37:22;;;;;;;10.10;6.20;;;;;;;11.60;83.48;101444.31;2057207;28;20061;-66
2021/09/29 00:38:22;;;;;;;9.80;6.10;;;;;;;11.65;83.68;101450.25;2057710;28;20109;-65
2021/09/29 00:39:22;;;;;;;11.17;6.77;;;;;;;11.64;83.18;101443.31;2057136;28;20064;-69
2021/09/29 00:40:23;;;;;;;9.10;7.33;;;;;;;11.61;83.75;101442.56;2057379;28;20216;-67
2021/09/29 00:41:23;;;;;;;11.35;7.55;;;;;;;11.59;83.46;101433.03;2058052;28;20034;-66
2021/09/29 00:42:24;;;;;;;13.90;7.13;;;;;;;11.56;83.65;101433.13;2057998;28;20033;-68
2021/09/29 00:43:24;;;;;;;11.37;7.27;;;;;;;11.55;83.68;101431.44;2057898;28;20027;-65
2021/09/29 00:44:24;;;;;;;9.90;5.70;;;;;;;11.53;83.42;101432.41;2057853;28;20316;-66
2021/09/29 00:45:25;;;;;;;10.73;6.63;;;;;;;11.51;83.55;101426.38;2057948;28;20043;-66
2021/09/29 00:46:25;;;;;;;14.17;7.30;;;;;;;11.49;84.02;101431.66;2057998;28;20054;-67
2021/09/29 00:47:29;;;;;;;9.53;5.03;;;;;;;11.52;83.60;101426.31;2057698;28;20019;-64
2021/09/29 00:48:29;;;;;;;9.15;6.47;;;;;;;11.55;83.42;101426.22;2057724;28;20041;-66
2021/09/29 00:49:29;;;;;;;9.43;7.27;;;;;;;11.54;83.28;101423.66;2057945;28;20042;-67
2021/09/29 00:50:30;;;;;;;13.33;7.10;;;;;;;11.55;83.68;101425.34;2057873;28;20187;-68
2021/09/29 00:51:30;;;;;;;12.10;6.47;;;;;;;11.52;83.59;101421.09;2057823;28;20033;-66
2021/09/29 00:52:32;;;;;;;8.97;5.87;;;;;;;11.49;84.10;101415.97;2057730;28;20774;-66
2021/09/29 00:53:32;;;;;;;17.42;6.93;;;;;;;11.48;83.69;101413.41;2057030;28;20105;-67
2021/09/29 00:54:32;;;;;;;12.33;7.17;;;;;;;11.48;84.21;101411.66;2057119;28;20103;-68
2021/09/29 00:55:34;;;;;;;9.20;7.70;;;;;;;11.45;83.96;101409.16;2057937;28;20034;-67
2021/09/29 00:56:34;;;;;;;;;;;;;;;11.44;84.65;101410.06;2057832;28;20062;-66
2021/09/29 00:57:35;;;;;;;13.98;6.85;;;;;;;11.43;83.88;101405.75;2057475;28;20348;-66
2021/09/29 00:58:35;;;;;;;13.68;7.15;;;;;;;11.44;84.04;101404.84;2059029;28;20057;-66
2021/09/29 00:59:37;;;;;;;8.77;6.67;;;;;;;11.45;83.97;101398.69;2065781;28;20022;-65
2021/09/29 01:00:37;;;;;;;11.05;6.95;;;;;;;11.44;83.88;101403.09;2065804;28;20463;-65
2021/09/29 01:01:37;;;;;;;9.73;7.40;;;;;;;11.47;83.80;101391.66;2065837;28;20060;-68
2021/09/29 01:02:38;;;;;;;7.78;6.57;;;;;;;11.48;83.89;101395.13;2065599;28;20034;-66
2021/09/29 01:03:39;;;;;;;13.73;8.03;;;;;;;11.44;84.25;101394.41;2065761;28;20101;-66
2021/09/29 01:04:39;;;;;;;;;;;;;;;11.43;84.16;101400.53;2065545;28;20073;-65
2021/09/29 01:05:41;;;;;;;9.32;6.93;;;;;;;11.43;83.65;101395.31;2065030;28;19909;-67
2021/09/29 01:06:47;;;;;;;10.45;6.93;;;;;;;11.43;83.93;101398.75;2065032;28;20034;-66
2021/09/29 01:07:57;;;;;;;7.88;7.07;;;;;;;11.44;84.11;101391.78;2065079;28;20049;-67
2021/09/29 01:09:22;;;;;;;12.93;7.03;;;;;;;11.40;84.55;101391.03;2065605;28;20034;-68
2021/09/29 01:10:38;;;;;;;11.05;6.55;;;;;;;11.40;84.79;101390.19;2065630;28;20162;-67
2021/09/29 01:11:50;;;;;;;10.55;7.30;;;;;;;11.41;83.80;101392.75;2065594;28;20069;-65
2021/09/29 01:13:03;;;;;;;9.38;6.72;;;;;;;11.44;83.88;101390.03;2065427;28;20035;-65
2021/09/29 01:14:10;;;;;;;10.80;6.47;;;;;;;11.40;84.16;101384.97;2065309;28;20402;-68
2021/09/29 01:15:21;;;;;;;10.90;7.45;;;;;;;11.36;84.21;101383.38;2065430;28;20022;-68
2021/09/29 01:16:23;;;;;;;9.80;6.55;;;;;;;11.38;84.06;101382.41;2065577;28;20049;-68
2021/09/29 01:17:23;;;;;;;10.23;7.28;;;;;;;11.43;83.84;101380.47;2065460;28;20133;-67
2021/09/29 01:18:25;;;;;;;12.23;7.00;;;;;;;11.43;84.41;101384.84;2064980;28;20030;-67
2021/09/29 01:20:04;;;;;;;9.40;6.57;;;;;;;11.37;83.76;101372.88;2064703;28;20033;-68
2021/09/29 01:21:10;;;;;;;12.80;7.72;;;;;;;11.32;84.07;101372.16;2064097;28;20030;-69
2021/09/29 01:22:24;;;;;;;17.83;9.63;;;;;;;11.32;84.26;101367.81;2065471;28;20026;-65
2021/09/29 01:23:28;;;;;;;11.40;6.47;;;;;;;11.36;84.21;101378.16;2064546;28;20033;-68
2021/09/29 01:24:39;;;;;;;10.93;5.35;;;;;;;11.30;84.26;101364.38;2064686;28;20018;-67
2021/09/29 01:25:56;;;;;;;9.07;5.97;;;;;;;11.30;84.94;101367.00;2064630;28;20034;-66
2021/09/29 01:26:59;;;;;;;7.95;4.38;;;;;;;11.25;84.91;101361.09;2065204;28;20030;-69
2021/09/29 01:28:00;;;;;;;12.90;7.15;;;;;;;11.21;85.48;101356.91;2065476;28;20022;-68
2021/09/29 01:29:09;;;;;;;9.50;6.25;;;;;;;11.20;85.38;101357.81;2065595;28;20077;-66
2021/09/29 01:30:10;;;;;;;12.05;7.15;;;;;;;11.16;85.65;101357.06;2065514;28;20472;-68
2021/09/29 01:31:11;;;;;;;16.08;6.70;;;;;;;11.11;86.02;101347.69;2065470;28;20034;-69
2021/09/29 01:32:12;;;;;;;15.37;6.97;;;;;;;11.12;85.06;101349.41;2065625;28;20034;-68
2021/09/29 01:33:13;;;;;;;12.57;6.72;;;;;;;11.14;85.42;101352.81;2065835;28;20289;-67
2021/09/29 01:34:15;;;;;;;8.85;7.40;;;;;;;11.14;85.54;101352.81;2065626;28;20029;-67
2021/09/29 01:35:15;;;;;;;11.02;7.35;;;;;;;11.14;85.55;101347.56;2065664;28;20105;-69
2021/09/29 01:36:18;;;;;;;10.37;6.57;;;;;;;11.16;85.20;101345.78;2065510;28;20411;-67
2021/09/29 01:37:19;;;;;;;13.55;6.97;;;;;;;11.13;85.62;101341.53;2065640;28;20026;-68
2021/09/29 01:38:19;;;;;;;10.10;7.13;;;;;;;11.15;86.02;101338.84;2065610;28;20037;-68
2021/09/29 01:39:25;;;;;;;7.07;5.65;;;;;;;11.15;85.21;101338.84;2065590;28;20022;-68
2021/09/29 01:40:25;;;;;;;7.88;6.63;;;;;;;11.17;85.80;101347.47;2065407;28;20057;-66
2021/09/29 01:41:30;;;;;;;10.83;6.70;;;;;;;11.15;85.88;101351.91;2065482;28;20384;-67
2021/09/29 01:42:31;;;;;;;8.25;6.03;;;;;;;11.13;85.45;101345.88;2065395;28;20022;-67
2021/09/29 01:43:32;;;;;;;12.03;7.07;;;;;;;11.13;85.74;101340.66;2065471;28;20050;-68
2021/09/29 01:44:33;;;;;;;8.10;6.88;;;;;;;11.12;85.81;101339.78;2065436;28;20030;-67
2021/09/29 01:45:35;;;;;;;11.45;7.15;;;;;;;11.15;85.60;101341.47;2065575;28;20050;-67
2021/09/29 01:46:35;;;;;;;9.65;5.82;;;;;;;11.14;85.64;101335.38;2065362;28;20034;-65
2021/09/29 01:47:36;;;;;;;9.17;6.77;;;;;;;11.17;85.51;101337.03;2065442;28;20034;-67
2021/09/29 01:48:50;;;;;;;8.43;6.97;;;;;;;11.21;85.24;101333.38;2065505;28;20026;-67
2021/09/29 01:49:52;;;;;;;8.93;6.63;;;;;;;11.21;84.93;101328.16;2064848;28;20034;-68
2021/09/29 01:50:57;;;;;;;10.18;6.88;;;;;;;11.19;85.63;101330.81;2065035;28;20022;-68
2021/09/29 01:51:58;;;;;;;10.02;6.82;;;;;;;11.19;85.55;101335.22;2065690;28;20368;-66
2021/09/29 01:53:00;;;;;;;11.00;7.60;;;;;;;11.18;85.83;101333.50;2065635;28;20067;-68
2021/09/29 01:54:01;;;;;;;11.15;6.88;;;;;;;11.17;85.80;101331.81;2065650;28;20023;-68
2021/09/29 01:55:02;;;;;;;;;;;;;;;11.16;85.15;101327.50;2066156;28;20030;-67
2021/09/29 01:56:04;;;;;;;6.75;5.68;;;;;;;11.13;85.29;101320.63;2065436;28;19949;-68
2021/09/29 01:57:04;;;;;;;;;;;;;;;11.15;84.87;101323.19;2066151;28;20065;-67
2021/09/29 01:58:05;;;;;;;6.93;6.05;;;;;;;11.13;86.26;101320.63;2065350;28;19976;-67
2021/09/29 01:59:05;;;;;;;;;;;;;;;11.12;85.13;101316.28;2066012;28;20055;-69
2021/09/29 02:00:06;;;;;;;9.02;6.45;;;;;;;11.09;86.05;101308.59;2065386;28;19913;-66
2021/09/29 02:01:07;;;;;;;9.45;5.00;;;;;;;11.07;85.95;101316.47;2065298;28;20022;-67
2021/09/29 02:02:08;;;;;;;7.27;5.93;;;;;;;11.06;86.26;101319.97;2065451;28;20387;-67
2021/09/29 02:03:08;;;;;;;8.77;5.97;;;;;;;11.05;85.91;101313.06;2065405;28;20101;-69
2021/09/29 02:04:10;;;;;;;8.18;5.53;;;;;;;11.06;85.97;101313.91;2064569;28;20038;-68
2021/09/29 02:05:12;;;;;;;9.27;6.43;;;;;;;11.07;86.16;101311.25;2064962;28;20054;-68
2021/09/29 02:06:13;;;;;;;10.27;6.57;;;;;;;11.05;86.05;101309.63;2065727;28;20022;-66
2021/09/29 02:07:14;;;;;;;13.02;6.03;;;;;;;11.07;86.08;101311.25;2065348;28;20026;-67
2021/09/29 02:08:14;;;;;;;9.98;7.50;;;;;;;11.11;85.88;101309.38;2064864;28;20050;-67
2021/09/29 02:09:16;;;;;;;9.97;6.10;;;;;;;11.16;85.32;101306.59;2064912;28;20097;-68
2021/09/29 02:10:16;;;;;;;7.95;7.00;;;;;;;11.17;85.76;101310.91;2065535;28;20510;-67
2021/09/29 02:11:17;;;;;;;10.30;6.23;;;;;;;11.22;85.34;101306.34;2065570;28;20026;-69
2021/09/29 02:12:18;;;;;;;7.03;6.17;;;;;;;11.23;85.36;101305.47;2065613;28;20026;-68
2021/09/29 02:13:18;;;;;;;13.82;7.13;;;;;;;11.22;85.06;101303.72;2065574;28;20026;-69
2021/09/29 02:14:21;;;;;;;11.77;6.80;;;;;;;11.22;85.42;101302.91;2064973;28;20578;-68
2021/09/29 02:15:21;;;;;;;7.25;6.05;;;;;;;11.21;85.35;101299.44;2057205;28;20026;-70
2021/09/29 02:16:22;;;;;;;12.45;6.50;;;;;;;11.19;85.62;101294.25;2064768;28;20018;-66
2021/09/29 02:17:22;;;;;;;11.47;6.60;;;;;;;11.20;85.55;101295.13;2065614;28;20113;-68
2021/09/29 02:18:23;;;;;;;9.38;6.97;;;;;;;11.19;86.02;101298.66;2065481;28;20065;-67
2021/09/29 02:19:24;;;;;;;35.40;8.77;;;;;;;11.16;85.29;101288.31;2065438;28;20026;-69
2021/09/29 02:20:26;;;;;;;8.15;5.88;;;;;;;11.11;85.65;101285.84;2064924;28;20010;-68
2021/09/29 02:21:27;;;;;;;10.82;6.88;;;;;;;11.12;85.46;101291.94;2064961;28;20204;-68
2021/09/29 02:22:27;;;;;;;11.40;6.50;;;;;;;11.13;85.81;101289.28;2065067;28;20168;-68
2021/09/29 02:23:28;;;;;;;11.27;6.73;;;;;;;11.13;85.80;101297.13;2065520;28;20482;-69
2021/09/29 02:24:28;;;;;;;8.70;6.63;;;;;;;11.14;86.38;101292.72;2065564;28;20379;-65
2021/09/29 02:25:29;;;;;;;8.60;6.83;;;;;;;11.16;86.08;101291.75;2065598;28;20030;-66
2021/09/29 02:26:29;;;;;;;9.20;7.30;;;;;;;11.19;85.23;101285.59;2065595;28;20026;-67
2021/09/29 02:27:29;;;;;;;11.10;7.27;;;;;;;11.25;85.35;101287.94;2065423;28;20026;-67
2021/09/29 02:28:29;;;;;;;10.67;6.67;;;;;;;11.30;85.06;101279.94;2064880;28;20074;-67
2021/09/29 02:29:30;;;;;;;10.73;6.87;;;;;;;11.28;84.92;101274.78;2065199;28;20193;-69
2021/09/29 02:30:30;;;;;;;13.47;6.53;;;;;;;11.29;84.87;101279.06;2067071;28;20026;-68
2021/09/29 02:31:31;;;;;;;9.87;6.90;;;;;;;11.27;86.17;101275.69;2067044;28;20018;-69
2021/09/29 02:32:33;;;;;;;7.30;6.60;;;;;;;11.24;84.85;101270.56;2067057;28;20033;-68
2021/09/29 02:33:33;;;;;;;11.15;6.53;;;;;;;11.27;84.86;101280.06;2067054;28;20129;-69
2021/09/29 02:34:33;;;;;;;10.97;6.73;;;;;;;11.25;85.41;101268.81;2066415;28;20030;-69
2021/09/29 02:35:34;;;;;;;11.57;6.20;;;;;;;11.25;85.40;101268.81;2066683;28;20403;-68
2021/09/29 02:36:35;;;;;;;12.07;6.00;;;;;;;11.26;84.83;101270.53;2067060;28;20026;-68
2021/09/29 02:37:35;;;;;;;8.90;6.50;;;;;;;11.25;85.30;101272.28;2067164;28;20029;-70
2021/09/29 02:38:37;;;;;;;7.35;6.32;;;;;;;11.23;85.09;101263.66;2066328;28;20026;-68
2021/09/29 02:39:37;;;;;;;11.10;7.47;;;;;;;11.22;85.77;101261.94;2066242;28;20026;-67
2021/09/29 02:40:38;;;;;;;7.93;6.07;;;;;;;11.22;85.38;101264.53;2067000;28;20054;-69
2021/09/29 02:41:38;;;;;;;11.23;6.37;;;;;;;11.22;85.76;101261.94;2066999;28;20033;-68
2021/09/29 02:42:38;;;;;;;9.53;6.33;;;;;;;11.26;85.27;101268.75;2066922;28;20030;-67
2021/09/29 02:43:39;;;;;;;14.60;6.53;;;;;;;11.27;85.20;101260.00;2066893;28;20395;-69
2021/09/29 02:44:39;;;;;;;6.97;5.43;;;;;;;11.29;85.36;101263.41;2066199;28;20060;-67
2021/09/29 02:45:39;;;;;;;9.37;6.70;;;;;;;11.29;85.16;101258.19;2066166;28;20427;-67
2021/09/29 02:46:41;;;;;;;7.47;5.63;;;;;;;11.30;85.05;101259.88;2066688;28;20041;-67
2021/09/29 02:47:42;;;;;;;11.02;5.82;;;;;;;11.31;85.74;101261.59;2066730;28;20014;-67
2021/09/29 02:48:42;;;;;;;12.50;6.70;;;;;;;11.28;85.12;101259.09;2066154;28;20085;-65
2021/09/29 02:49:42;;;;;;;9.60;6.77;;;;;;;11.30;84.60;101256.44;2066313;28;20113;-67
2021/09/29 02:50:43;;;;;;;8.33;5.70;;;;;;;11.33;85.29;101259.75;2066820;28;20113;-67
2021/09/29 02:51:43;;;;;;;12.33;6.17;;;;;;;11.37;84.89;101259.66;2066898;28;20511;-68
2021/09/29 02:52:44;;;;;;;7.18;6.18;;;;;;;11.38;84.90;101262.19;2067000;28;20056;-69
2021/09/29 02:53:44;;;;;;;10.83;6.17;;;;;;;11.39;84.88;101255.22;2066958;28;20101;-68
2021/09/29 02:54:44;;;;;;;15.73;7.70;;;;;;;11.38;84.65;101256.97;2066746;28;20026;-68
2021/09/29 02:55:45;;;;;;;8.77;5.83;;;;;;;11.42;84.94;101255.94;2066997;28;20026;-68
2021/09/29 02:56:45;;;;;;;6.40;5.60;;;;;;;11.43;84.98;101255.03;2066261;28;20121;-66
2021/09/29 02:57:45;;;;;;;7.00;6.18;;;;;;;11.44;85.27;101248.91;2066199;28;20101;-69
2021/09/29 02:58:46;;;;;;;7.23;6.20;;;;;;;11.44;84.84;101258.50;2066043;28;20644;-69
2021/09/29 02:59:46;;;;;;;12.20;6.90;;;;;;;11.44;85.02;101250.66;2066860;28;20030;-68
2021/09/29 03:00:47;;;;;;;7.20;5.88;;;;;;;11.45;84.80;101248.00;2066675;28;20018;-68
2021/09/29 03:01:47;;;;;;;9.43;6.13;;;;;;;11.47;84.57;101250.53;2066748;28;20109;-68
2021/09/29 03:02:47;;;;;;;9.47;5.67;;;;;;;11.50;84.96;101247.78;2066702;28;20026;-65
2021/09/29 03:03:47;;;;;;;8.37;5.07;;;;;;;11.52;84.53;101243.34;2066610;28;20080;-67
2021/09/29 03:04:48;;;;;;;9.07;6.57;;;;;;;11.53;83.94;101249.44;2066781;28;20062;-69
2021/09/29 03:05:48;;;;;;;12.77;5.70;;;;;;;11.54;84.04;101230.22;2066647;28;20037;-68
2021/09/29 03:06:49;;;;;;;11.95;6.18;;;;;;;11.55;83.71;101238.00;2066635;28;20025;-66
2021/09/29 03:07:49;;;;;;;7.70;5.47;;;;;;;11.58;83.97;101240.50;2065943;28;20030;-67
2021/09/29 03:08:49;;;;;;;8.93;5.93;;;;;;;11.58;83.85;101239.66;2066099;28;20117;-69
2021/09/29 03:09:49;;;;;;;8.73;6.10;;;;;;;11.58;83.73;101240.50;2058040;28;20027;-66
2021/09/29 03:10:50;;;;;;;8.27;6.00;;;;;;;11.58;84.38;101242.25;2066152;28;20526;-66
2021/09/29 03:11:50;;;;;;;13.57;6.50;;;;;;;11.58;84.36;101237.03;2066820;28;20034;-65
2021/09/29 03:12:50;;;;;;;9.47;5.63;;;;;;;11.57;84.13;101230.13;2065966;28;20289;-66
2021/09/29 03:13:51;;;;;;;7.37;4.83;;;;;;;11.57;84.59;101228.34;2065826;28;20053;-65
2021/09/29 03:14:51;;;;;;;11.10;5.82;;;;;;;11.56;84.77;101229.25;2065875;28;20583;-67
2021/09/29 03:15:51;;;;;;;9.23;6.00;;;;;;;11.62;84.07;101227.28;2066969;28;20041;-66
2021/09/29 03:16:52;;;;;;;10.37;6.30;;;;;;;11.63;83.57;101224.63;2066798;28;20018;-67
2021/09/29 03:17:52;;;;;;;8.30;5.80;;;;;;;11.66;83.46;101228.88;2066656;28;20058;-67
2021/09/29 03:18:54;;;;;;;6.53;3.90;;;;;;;11.63;84.06;101223.78;2065878;28;20520;-67
2021/09/29 03:19:55;;;;;;;7.80;5.28;;;;;;;11.64;83.75;101230.72;2065949;28;20023;-66
2021/09/29 03:20:56;;;;;;;9.03;6.00;;;;;;;11.66;83.75;101218.41;2066488;28;20041;-65
2021/09/29 03:21:56;;;;;;;10.30;6.38;;;;;;;11.66;83.83;101228.88;2066580;28;20030;-66
2021/09/29 03:22:57;;;;;;;9.23;5.68;;;;;;;11.66;83.67;101216.66;2066473;28;20054;-69
2021/09/29 03:23:57;;;;;;;8.38;7.55;;;;;;;11.67;84.09;101220.13;2066610;28;20105;-68
2021/09/29 03:24:59;;;;;;;9.90;6.23;;;;;;;11.65;84.07;101227.19;2066810;28;20026;-66
2021/09/29 03:25:59;;;;;;;6.97;5.72;;;;;;;11.64;84.19;101225.47;2066606;28;20026;-67
2021/09/29 03:26:59;;;;;;;5.72;4.75;;;;;;;11.65;83.79;101221.94;2066409;28;19945;-68
2021/09/29 03:28:00;;;;;;;8.77;6.03;;;;;;;11.66;83.99;101215.78;2066491;28;20038;-67
2021/09/29 03:29:00;;;;;;;8.70;4.77;;;;;;;11.66;83.96;101227.13;2066494;28;20034;-69
2021/09/29 03:30:00;;;;;;;9.67;5.70;;;;;;;11.66;84.15;101218.41;2065791;28;20424;-67
2021/09/29 03:31:01;;;;;;;6.63;5.83;;;;;;;11.68;83.58;101209.63;2066084;28;20041;-69
2021/09/29 03:32:02;;;;;;;8.47;6.10;;;;;;;11.66;83.58;101208.81;2066586;28;20026;-68
2021/09/29 03:33:06;;;;;;;8.40;5.03;;;;;;;11.66;83.64;101208.81;2066424;28;20026;-68
2021/09/29 03:34:06;;;;;;;7.00;5.72;;;;;;;11.66;83.71;101210.56;2066397;28;20046;-67
2021/09/29 03:35:07;;;;;;;9.80;5.97;;;;;;;11.68;83.70;101211.38;2065922;28;20026;-66
2021/09/29 03:36:08;;;;;;;7.45;6.00;;;;;;;11.66;83.43;101203.59;2065998;28;20050;-67
2021/09/29 03:37:08;;;;;;;8.60;5.93;;;;;;;11.64;84.02;101210.66;2066484;28;20034;-65
2021/09/29 03:38:09;;;;;;;5.57;4.87;;;;;;;11.65;83.56;101206.25;2066407;28;20400;-68
2021/09/29 03:39:10;;;;;;;10.07;5.50;;;;;;;11.64;83.84;101201.94;2065716;28;20037;-68
2021/09/29 03:40:12;;;;;;;6.80;4.97;;;;;;;11.62;83.81;101206.38;2065763;28;20077;-67
2021/09/29 03:41:13;;;;;;;12.23;6.60;;;;;;;11.60;83.78;101203.81;2066170;28;20053;-66
2021/09/29 03:42:13;;;;;;;8.00;5.07;;;;;;;11.61;84.01;101207.31;2065668;28;20434;-67
2021/09/29 03:43:13;;;;;;;8.43;6.07;;;;;;;11.59;83.78;101203.00;2065848;28;20092;-66
2021/09/29 03:44:13;;;;;;;8.67;5.43;;;;;;;11.58;84.46;101206.53;2066434;28;20030;-67
2021/09/29 03:45:14;;;;;;;12.40;4.70;;;;;;;11.55;83.80;101206.66;2065627;28;20089;-65
2021/09/29 03:46:14;;;;;;;9.07;3.90;;;;;;;11.57;84.17;101203.97;2065670;28;20114;-71
2021/09/29 03:47:14;;;;;;;8.27;3.70;;;;;;;11.58;84.44;101205.66;2065749;28;20026;-67
2021/09/29 03:48:15;;;;;;;6.30;4.00;;;;;;;11.58;84.46;101208.28;2065633;28;20570;-67
2021/09/29 03:49:15;;;;;;;6.05;4.55;;;;;;;11.56;84.36;101200.50;2066231;28;20062;-66
2021/09/29 03:50:15;;;;;;;8.27;3.63;;;;;;;11.57;84.03;101201.38;2066389;28;20049;-68
2021/09/29 03:51:16;;;;;;;7.23;3.50;;;;;;;11.57;84.14;101196.13;2066265;28;20109;-68
2021/09/29 03:52:16;;;;;;;12.13;4.87;;;;;;;11.57;84.69;101199.56;2066125;28;20116;-71
2021/09/29 03:53:16;;;;;;;7.30;5.05;;;;;;;11.56;84.73;101202.25;2066141;28;20053;-67
2021/09/29 03:54:17;;;;;;;6.37;5.37;;;;;;;11.56;84.17;101197.88;2066401;28;20059;-66
2021/09/29 03:55:17;;;;;;;7.13;4.60;;;;;;;11.59;84.07;101200.38;2066131;28;20022;-70
2021/09/29 03:56:17;;;;;;;6.07;5.00;;;;;;;11.59;84.44;101197.78;2066243;28;20105;-66
2021/09/29 03:57:18;;;;;;;7.77;3.70;;;;;;;11.58;84.12;101196.06;2066400;28;20068;-67
2021/09/29 03:58:18;;;;;;;8.13;4.07;;;;;;;11.59;84.32;101192.53;2066092;28;20113;-67
2021/09/29 03:59:19;;;;;;;9.13;4.13;;;;;;;11.59;84.17;101192.53;2065290;28;20562;-66
2021/09/29 04:00:19;;;;;;;8.23;5.33;;;;;;;11.62;84.09;101190.69;2065545;28;20023;-66
2021/09/29 04:01:19;;;;;;;9.03;4.83;;;;;;;11.61;84.18;101196.84;2066080;28;20397;-66
2021/09/29 04:02:19;;;;;;;4.90;3.03;;;;;;;11.61;84.32;101186.38;2065703;28;20062;-66
2021/09/29 04:03:20;;;;;;;7.93;5.20;;;;;;;11.62;84.10;101194.16;2065637;28;20026;-66
2021/09/29 04:04:20;;;;;;;6.10;3.87;;;;;;;11.62;84.24;101185.47;2066200;28;20018;-67
2021/09/29 04:05:20;;;;;;;6.83;4.33;;;;;;;11.64;84.43;101186.28;2066192;28;20092;-68
2021/09/29 04:06:20;;;;;;;6.70;5.37;;;;;;;11.66;84.50;101190.50;2065464;28;20435;-66
2021/09/29 04:07:21;;;;;;;6.93;4.20;;;;;;;11.66;84.21;101182.69;2065586;28;20034;-66
2021/09/29 04:08:21;;;;;;;6.60;4.90;;;;;;;11.69;84.32;101197.38;2065630;28;20026;-65
2021/09/29 04:09:21;;;;;;;7.90;5.50;;;;;;;11.69;84.57;101194.75;2065604;28;20018;-67
2021/09/29 04:10:22;;;;;;;11.30;6.43;;;;;;;11.69;84.78;101192.16;2066166;28;20061;-66
2021/09/29 04:11:22;;;;;;;8.83;4.90;;;;;;;11.68;84.89;101190.44;2065464;28;20471;-67
2021/09/29 04:12:23;;;;;;;12.73;5.27;;;;;;;11.68;85.37;101190.44;2065822;28;20364;-68
2021/09/29 04:13:24;;;;;;;8.07;5.20;;;;;;;11.65;84.47;101195.81;2066298;28;20556;-67
2021/09/29 04:14:25;;;;;;;8.48;5.60;;;;;;;11.66;84.47;101202.72;2065724;28;20034;-68
2021/09/29 04:15:25;;;;;;;7.85;5.03;;;;;;;11.69;84.67;101192.16;2065482;28;20399;-68
2021/09/29 04:16:25;;;;;;;7.93;5.43;;;;;;;11.67;84.44;101188.75;2066256;28;20065;-68
2021/09/29 04:17:25;;;;;;;8.83;5.33;;;;;;;11.67;84.94;101199.22;2066251;28;20053;-68
2021/09/29 04:18:26;;;;;;;11.57;4.30;;;;;;;11.65;85.23;101196.66;2065369;28;20064;-69
2021/09/29 04:19:26;;;;;;;7.22;5.07;;;;;;;11.65;86.20;101198.41;2065563;28;20027;-69
2021/09/29 04:20:27;;;;;;;4.87;3.53;;;;;;;11.62;86.33;101195.94;2066054;28;20014;-67
2021/09/29 04:21:27;;;;;;;6.93;4.30;;;;;;;11.58;86.31;101193.47;2065653;28;20053;-66
2021/09/29 04:22:28;;;;;;;5.03;3.75;;;;;;;11.58;86.44;101190.84;2065385;28;20518;-67
2021/09/29 04:23:28;;;;;;;6.97;4.50;;;;;;;11.60;86.45;101195.97;2066223;28;20033;-68
2021/09/29 04:24:29;;;;;;;6.47;5.17;;;;;;;11.59;86.11;101189.94;2066334;28;20452;-68
2021/09/29 04:25:29;;;;;;;6.72;5.25;;;;;;;11.61;85.99;101187.25;2066196;28;20125;-67
2021/09/29 04:26:29;;;;;;;8.80;4.57;;;;;;;11.59;86.19;101189.94;2066125;28;20073;-68
2021/09/29 04:27:30;;;;;;;10.10;4.87;;;;;;;11.58;86.15;101180.38;2066015;28;20364;-69
2021/09/29 04:28:30;;;;;;;7.53;4.57;;;;;;;11.59;86.12;101187.31;2066174;28;20407;-69
2021/09/29 04:29:31;;;;;;;7.50;4.65;;;;;;;11.57;85.97;101181.28;2065884;28;20502;-68
2021/09/29 04:30:31;;;;;;;10.33;5.17;;;;;;;11.59;86.15;101192.53;2065992;28;20034;-69
2021/09/29 04:31:32;;;;;;;5.63;3.90;;;;;;;11.58;86.80;101184.75;2065849;28;20057;-68
2021/09/29 04:32:32;;;;;;;8.07;5.15;;;;;;;11.56;86.99;101182.19;2065884;28;20138;-67
2021/09/29 04:33:32;;;;;;;6.18;4.75;;;;;;;11.56;86.50;101195.28;2065881;28;20049;-68
2021/09/29 04:34:33;;;;;;;10.27;4.40;;;;;;;11.56;86.69;101186.56;2065937;28;20041;-67
2021/09/29 04:35:33;;;;;;;6.07;4.77;;;;;;;11.58;86.45;101184.75;2065841;28;20036;-67
2021/09/29 04:36:33;;;;;;;12.53;5.67;;;;;;;11.57;87.74;101178.66;2066106;28;20356;-66
2021/09/29 04:37:34;;;;;;;6.07;4.70;;;;;;;11.54;87.50;101176.22;2065360;28;20036;-67
2021/09/29 04:38:34;;;;;;;7.23;5.73;;;;;;;11.54;87.60;101186.66;2065461;28;20436;-67
2021/09/29 04:39:35;;;;;;;9.63;4.33;;;;;;;11.53;87.66;101190.16;2065824;28;20073;-68
2021/09/29 04:40:35;;;;;;;7.80;4.53;;;;;;;11.52;88.37;101195.44;2066054;28;20452;-66
2021/09/29 04:41:35;;;;;;;7.47;4.33;;;;;;;11.51;87.28;101186.78;2065904;28;20073;-67
2021/09/29 04:42:36;;;;;;;6.50;4.23;;;;;;;11.53;87.24;101179.72;2065320;28;20542;-65
2021/09/29 04:43:36;;;;;;;8.77;3.97;;;;;;;11.51;87.60;101181.56;2065205;28;20441;-63
2021/09/29 04:44:36;;;;;;;8.97;4.67;;;;;;;11.50;87.60;101187.66;2065737;28;20022;-64